sensor_id;sensor_type;location;lat;lon;timestamp;temperature;humidity
70550;DHT22;58101;48.658;2.328;2022-09-17T00:01:15;12.20;83.20
70550;DHT22;58101;48.658;2.328;2022-09-17T00:03:42;12.20;83.80
70550;DHT22;58101;48.658;2.328;2022-09-17T00:06:09;12.20;84.30
70550;DHT22;58101;48.658;2.328;2022-09-17T00:08:38;12.30;84.00
70550;DHT22;58101;48.658;2.328;2022-09-17T00:11:09;12.10;83.80
70550;DHT22;58101;48.658;2.328;2022-09-17T00:13:35;12.10;84.80
70550;DHT22;58101;48.658;2.328;2022-09-17T00:16:01;12.00;85.00
70550;DHT22;58101;48.658;2.328;2022-09-17T00:18:27;12.00;85.00
70550;DHT22;58101;48.658;2.328;2022-09-17T00:20:53;12.00;86.10
70550;DHT22;58101;48.658;2.328;2022-09-17T00:23:19;12.00;85.70
70550;DHT22;58101;48.658;2.328;2022-09-17T00:25:45;11.90;85.80
70550;DHT22;58101;48.658;2.328;2022-09-17T00:28:12;11.90;86.40
70550;DHT22;58101;48.658;2.328;2022-09-17T00:30:40;11.90;87.00
70550;DHT22;58101;48.658;2.328;2022-09-17T00:33:06;11.90;86.60
70550;DHT22;58101;48.658;2.328;2022-09-17T00:35:32;11.80;86.80
70550;DHT22;58101;48.658;2.328;2022-09-17T00:37:58;11.80;87.00
70550;DHT22;58101;48.658;2.328;2022-09-17T00:40:24;11.80;87.10
70550;DHT22;58101;48.658;2.328;2022-09-17T00:42:49;11.70;87.30
70550;DHT22;58101;48.658;2.328;2022-09-17T00:45:18;11.70;87.50
70550;DHT22;58101;48.658;2.328;2022-09-17T00:47:47;11.70;87.40
70550;DHT22;58101;48.658;2.328;2022-09-17T00:50:22;11.70;87.60
70550;DHT22;58101;48.658;2.328;2022-09-17T00:53:04;11.70;87.70
70550;DHT22;58101;48.658;2.328;2022-09-17T00:55:33;11.70;87.70
70550;DHT22;58101;48.658;2.328;2022-09-17T00:58:02;11.70;88.00
70550;DHT22;58101;48.658;2.328;2022-09-17T01:00:29;11.60;88.50
70550;DHT22;58101;48.658;2.328;2022-09-17T01:02:55;11.60;88.30
70550;DHT22;58101;48.658;2.328;2022-09-17T01:05:39;11.60;88.90
70550;DHT22;58101;48.658;2.328;2022-09-17T01:16:46;11.60;89.80
70550;DHT22;58101;48.658;2.328;2022-09-17T01:25:18;11.60;89.10
70550;DHT22;58101;48.658;2.328;2022-09-17T01:28:05;11.50;88.90
70550;DHT22;58101;48.658;2.328;2022-09-17T01:33:26;11.50;90.10
70550;DHT22;58101;48.658;2.328;2022-09-17T01:41:41;11.50;89.70
70550;DHT22;58101;48.658;2.328;2022-09-17T01:44:22;11.50;90.00
70550;DHT22;58101;48.658;2.328;2022-09-17T01:47:04;11.50;90.00
70550;DHT22;58101;48.658;2.328;2022-09-17T01:49:34;11.50;90.10
70550;DHT22;58101;48.658;2.328;2022-09-17T01:52:02;11.50;90.00
70550;DHT22;58101;48.658;2.328;2022-09-17T01:54:36;11.40;90.20
70550;DHT22;58101;48.658;2.328;2022-09-17T01:57:18;11.50;90.10
70550;DHT22;58101;48.658;2.328;2022-09-17T02:00:10;11.40;90.00
70550;DHT22;58101;48.658;2.328;2022-09-17T02:05:23;11.40;90.00
70550;DHT22;58101;48.658;2.328;2022-09-17T02:08:21;11.40;90.00
70550;DHT22;58101;48.658;2.328;2022-09-17T02:10:54;11.40;90.30
70550;DHT22;58101;48.658;2.328;2022-09-17T02:13:28;11.40;90.30
70550;DHT22;58101;48.658;2.328;2022-09-17T02:16:04;11.30;90.90
70550;DHT22;58101;48.658;2.328;2022-09-17T02:21:10;11.40;90.60
70550;DHT22;58101;48.658;2.328;2022-09-17T02:23:51;11.30;90.40
70550;DHT22;58101;48.658;2.328;2022-09-17T02:26:22;11.30;90.90
70550;DHT22;58101;48.658;2.328;2022-09-17T02:28:56;11.30;90.80
70550;DHT22;58101;48.658;2.328;2022-09-17T02:31:23;11.30;91.10
70550;DHT22;58101;48.658;2.328;2022-09-17T02:33:52;11.20;91.10
70550;DHT22;58101;48.658;2.328;2022-09-17T02:36:19;11.20;91.50
70550;DHT22;58101;48.658;2.328;2022-09-17T02:38:46;11.20;91.20
70550;DHT22;58101;48.658;2.328;2022-09-17T02:41:18;11.20;91.30
70550;DHT22;58101;48.658;2.328;2022-09-17T02:54:32;11.20;92.00
70550;DHT22;58101;48.658;2.328;2022-09-17T02:57:19;11.10;91.40
70550;DHT22;58101;48.658;2.328;2022-09-17T02:59:57;11.10;91.30
70550;DHT22;58101;48.658;2.328;2022-09-17T03:02:33;11.10;91.30
70550;DHT22;58101;48.658;2.328;2022-09-17T03:05:02;11.00;91.20
70550;DHT22;58101;48.658;2.328;2022-09-17T03:07:28;11.10;91.30
70550;DHT22;58101;48.658;2.328;2022-09-17T03:09:54;11.00;91.50
70550;DHT22;58101;48.658;2.328;2022-09-17T03:12:19;11.00;91.40
70550;DHT22;58101;48.658;2.328;2022-09-17T03:14:46;11.00;91.50
70550;DHT22;58101;48.658;2.328;2022-09-17T03:17:11;11.00;91.70
70550;DHT22;58101;48.658;2.328;2022-09-17T03:19:39;11.00;91.70
70550;DHT22;58101;48.658;2.328;2022-09-17T03:22:04;11.00;91.50
70550;DHT22;58101;48.658;2.328;2022-09-17T03:24:30;11.00;91.80
70550;DHT22;58101;48.658;2.328;2022-09-17T03:26:56;11.00;91.70
70550;DHT22;58101;48.658;2.328;2022-09-17T03:29:21;11.00;91.70
70550;DHT22;58101;48.658;2.328;2022-09-17T03:31:47;11.00;91.70
70550;DHT22;58101;48.658;2.328;2022-09-17T03:34:13;11.00;91.30
70550;DHT22;58101;48.658;2.328;2022-09-17T03:36:38;10.90;91.50
70550;DHT22;58101;48.658;2.328;2022-09-17T03:39:04;10.90;91.60
70550;DHT22;58101;48.658;2.328;2022-09-17T03:41:30;10.90;92.10
70550;DHT22;58101;48.658;2.328;2022-09-17T03:43:56;10.90;91.90
70550;DHT22;58101;48.658;2.328;2022-09-17T03:46:21;10.90;91.80
70550;DHT22;58101;48.658;2.328;2022-09-17T03:48:50;10.80;92.40
70550;DHT22;58101;48.658;2.328;2022-09-17T03:51:15;10.80;92.10
70550;DHT22;58101;48.658;2.328;2022-09-17T03:53:41;10.80;92.10
70550;DHT22;58101;48.658;2.328;2022-09-17T03:56:07;10.80;92.00
70550;DHT22;58101;48.658;2.328;2022-09-17T03:58:33;10.80;91.90
70550;DHT22;58101;48.658;2.328;2022-09-17T04:00:59;10.80;92.80
70550;DHT22;58101;48.658;2.328;2022-09-17T04:03:26;10.70;92.10
70550;DHT22;58101;48.658;2.328;2022-09-17T04:05:52;10.70;92.10
70550;DHT22;58101;48.658;2.328;2022-09-17T04:08:18;10.70;92.10
70550;DHT22;58101;48.658;2.328;2022-09-17T04:10:45;10.70;92.40
70550;DHT22;58101;48.658;2.328;2022-09-17T04:13:11;10.60;92.30
70550;DHT22;58101;48.658;2.328;2022-09-17T04:15:37;10.70;92.40
70550;DHT22;58101;48.658;2.328;2022-09-17T04:18:04;10.60;92.60
70550;DHT22;58101;48.658;2.328;2022-09-17T04:20:29;10.50;92.80
70550;DHT22;58101;48.658;2.328;2022-09-17T04:22:55;10.50;93.40
70550;DHT22;58101;48.658;2.328;2022-09-17T04:25:21;10.50;92.80
70550;DHT22;58101;48.658;2.328;2022-09-17T04:27:46;10.50;92.90
70550;DHT22;58101;48.658;2.328;2022-09-17T04:30:13;10.50;92.90
70550;DHT22;58101;48.658;2.328;2022-09-17T04:32:39;10.40;93.30
70550;DHT22;58101;48.658;2.328;2022-09-17T04:35:05;10.40;93.40
70550;DHT22;58101;48.658;2.328;2022-09-17T04:37:31;10.40;93.50
70550;DHT22;58101;48.658;2.328;2022-09-17T04:39:57;10.40;94.10
70550;DHT22;58101;48.658;2.328;2022-09-17T04:42:22;10.40;94.20
70550;DHT22;58101;48.658;2.328;2022-09-17T04:44:48;10.30;94.10
70550;DHT22;58101;48.658;2.328;2022-09-17T04:47:13;10.30;94.00
70550;DHT22;58101;48.658;2.328;2022-09-17T04:49:39;10.30;94.60
70550;DHT22;58101;48.658;2.328;2022-09-17T04:52:05;10.30;94.80
70550;DHT22;58101;48.658;2.328;2022-09-17T04:54:31;10.40;94.70
70550;DHT22;58101;48.658;2.328;2022-09-17T04:56:56;10.30;95.10
70550;DHT22;58101;48.658;2.328;2022-09-17T04:59:22;10.30;95.20
70550;DHT22;58101;48.658;2.328;2022-09-17T05:01:48;10.30;95.20
70550;DHT22;58101;48.658;2.328;2022-09-17T05:04:13;10.30;95.40
70550;DHT22;58101;48.658;2.328;2022-09-17T05:06:39;10.40;95.00
70550;DHT22;58101;48.658;2.328;2022-09-17T05:09:05;10.40;95.00
70550;DHT22;58101;48.658;2.328;2022-09-17T05:11:31;10.30;95.00
70550;DHT22;58101;48.658;2.328;2022-09-17T05:13:57;10.30;95.00
70550;DHT22;58101;48.658;2.328;2022-09-17T05:16:22;10.30;95.10
70550;DHT22;58101;48.658;2.328;2022-09-17T05:18:48;10.30;95.60
70550;DHT22;58101;48.658;2.328;2022-09-17T05:21:16;10.30;95.00
70550;DHT22;58101;48.658;2.328;2022-09-17T05:23:42;10.30;95.50
70550;DHT22;58101;48.658;2.328;2022-09-17T05:26:07;10.30;95.80
70550;DHT22;58101;48.658;2.328;2022-09-17T05:28:33;10.40;96.00
70550;DHT22;58101;48.658;2.328;2022-09-17T05:30:59;10.20;96.30
70550;DHT22;58101;48.658;2.328;2022-09-17T05:33:25;10.10;95.70
70550;DHT22;58101;48.658;2.328;2022-09-17T05:35:51;10.30;95.70
70550;DHT22;58101;48.658;2.328;2022-09-17T05:38:17;10.20;95.80
70550;DHT22;58101;48.658;2.328;2022-09-17T05:40:44;10.20;95.90
70550;DHT22;58101;48.658;2.328;2022-09-17T05:43:10;10.30;96.00
70550;DHT22;58101;48.658;2.328;2022-09-17T05:45:36;10.20;95.80
70550;DHT22;58101;48.658;2.328;2022-09-17T05:48:04;10.10;95.90
70550;DHT22;58101;48.658;2.328;2022-09-17T05:50:31;10.30;96.30
70550;DHT22;58101;48.658;2.328;2022-09-17T05:53:06;10.10;96.60
70550;DHT22;58101;48.658;2.328;2022-09-17T05:55:32;10.20;96.90
70550;DHT22;58101;48.658;2.328;2022-09-17T05:57:59;10.20;96.50
70550;DHT22;58101;48.658;2.328;2022-09-17T06:00:25;10.20;96.60
70550;DHT22;58101;48.658;2.328;2022-09-17T06:02:55;10.20;96.50
70550;DHT22;58101;48.658;2.328;2022-09-17T06:05:22;10.20;96.50
70550;DHT22;58101;48.658;2.328;2022-09-17T06:07:48;10.20;96.50
70550;DHT22;58101;48.658;2.328;2022-09-17T06:10:17;10.20;96.20
70550;DHT22;58101;48.658;2.328;2022-09-17T06:12:55;10.30;96.40
70550;DHT22;58101;48.658;2.328;2022-09-17T06:15:21;10.30;96.40
70550;DHT22;58101;48.658;2.328;2022-09-17T06:17:46;10.40;96.30
70550;DHT22;58101;48.658;2.328;2022-09-17T06:20:12;10.30;96.10
70550;DHT22;58101;48.658;2.328;2022-09-17T06:22:38;10.50;96.00
70550;DHT22;58101;48.658;2.328;2022-09-17T06:25:03;10.60;95.60
70550;DHT22;58101;48.658;2.328;2022-09-17T06:27:33;10.50;95.30
70550;DHT22;58101;48.658;2.328;2022-09-17T06:29:59;10.60;95.60
70550;DHT22;58101;48.658;2.328;2022-09-17T06:32:25;10.70;95.50
70550;DHT22;58101;48.658;2.328;2022-09-17T06:34:51;10.70;95.00
70550;DHT22;58101;48.658;2.328;2022-09-17T06:37:17;10.90;95.30
70550;DHT22;58101;48.658;2.328;2022-09-17T06:39:42;10.90;95.10
70550;DHT22;58101;48.658;2.328;2022-09-17T06:42:09;11.00;94.30
70550;DHT22;58101;48.658;2.328;2022-09-17T06:44:34;11.00;94.40
70550;DHT22;58101;48.658;2.328;2022-09-17T06:47:00;11.20;94.20
70550;DHT22;58101;48.658;2.328;2022-09-17T06:49:26;11.30;93.60
70550;DHT22;58101;48.658;2.328;2022-09-17T06:51:53;11.40;93.20
70550;DHT22;58101;48.658;2.328;2022-09-17T06:54:18;11.40;93.30
70550;DHT22;58101;48.658;2.328;2022-09-17T06:56:45;11.60;93.30
70550;DHT22;58101;48.658;2.328;2022-09-17T06:59:11;11.60;91.90
70550;DHT22;58101;48.658;2.328;2022-09-17T07:01:43;11.70;92.20
70550;DHT22;58101;48.658;2.328;2022-09-17T07:04:09;11.80;92.00
70550;DHT22;58101;48.658;2.328;2022-09-17T07:06:34;11.90;91.20
70550;DHT22;58101;48.658;2.328;2022-09-17T07:09:00;12.00;91.10
70550;DHT22;58101;48.658;2.328;2022-09-17T07:11:28;12.10;90.80
70550;DHT22;58101;48.658;2.328;2022-09-17T07:13:54;12.20;90.50
70550;DHT22;58101;48.658;2.328;2022-09-17T07:16:20;12.40;90.10
70550;DHT22;58101;48.658;2.328;2022-09-17T07:18:59;12.50;90.10
70550;DHT22;58101;48.658;2.328;2022-09-17T07:21:43;12.60;87.90
70550;DHT22;58101;48.658;2.328;2022-09-17T07:24:08;12.70;87.40
70550;DHT22;58101;48.658;2.328;2022-09-17T07:26:34;12.90;85.00
70550;DHT22;58101;48.658;2.328;2022-09-17T07:29:00;13.00;84.30
70550;DHT22;58101;48.658;2.328;2022-09-17T07:31:29;13.10;83.40
70550;DHT22;58101;48.658;2.328;2022-09-17T07:33:55;13.30;82.50
70550;DHT22;58101;48.658;2.328;2022-09-17T07:36:23;13.40;83.20
70550;DHT22;58101;48.658;2.328;2022-09-17T07:38:49;13.50;82.80
70550;DHT22;58101;48.658;2.328;2022-09-17T07:41:16;13.60;81.20
70550;DHT22;58101;48.658;2.328;2022-09-17T07:43:42;13.80;81.10
70550;DHT22;58101;48.658;2.328;2022-09-17T07:46:14;13.90;79.10
70550;DHT22;58101;48.658;2.328;2022-09-17T07:48:40;14.00;78.10
70550;DHT22;58101;48.658;2.328;2022-09-17T07:51:06;14.10;77.00
70550;DHT22;58101;48.658;2.328;2022-09-17T07:53:32;14.20;77.20
70550;DHT22;58101;48.658;2.328;2022-09-17T07:55:59;14.40;75.80
70550;DHT22;58101;48.658;2.328;2022-09-17T07:58:31;14.50;75.70
70550;DHT22;58101;48.658;2.328;2022-09-17T08:01:06;14.60;73.60
70550;DHT22;58101;48.658;2.328;2022-09-17T08:03:34;14.70;73.50
70550;DHT22;58101;48.658;2.328;2022-09-17T08:06:04;14.80;73.30
70550;DHT22;58101;48.658;2.328;2022-09-17T08:08:32;15.00;73.10
70550;DHT22;58101;48.658;2.328;2022-09-17T08:11:00;15.10;72.30
70550;DHT22;58101;48.658;2.328;2022-09-17T08:13:26;15.30;73.00
70550;DHT22;58101;48.658;2.328;2022-09-17T08:16:00;15.60;72.00
70550;DHT22;58101;48.658;2.328;2022-09-17T08:18:26;15.90;72.30
70550;DHT22;58101;48.658;2.328;2022-09-17T08:20:59;16.60;71.20
70550;DHT22;58101;48.658;2.328;2022-09-17T08:23:26;17.70;67.20
70550;DHT22;58101;48.658;2.328;2022-09-17T08:25:56;19.30;62.50
70550;DHT22;58101;48.658;2.328;2022-09-17T08:28:23;21.30;56.50
70550;DHT22;58101;48.658;2.328;2022-09-17T08:30:50;23.30;50.80
70550;DHT22;58101;48.658;2.328;2022-09-17T08:33:16;25.00;44.20
70550;DHT22;58101;48.658;2.328;2022-09-17T08:35:52;26.20;40.90
70550;DHT22;58101;48.658;2.328;2022-09-17T08:38:18;27.30;37.60
70550;DHT22;58101;48.658;2.328;2022-09-17T08:43:43;28.90;32.60
70550;DHT22;58101;48.658;2.328;2022-09-17T08:46:11;29.40;31.30
70550;DHT22;58101;48.658;2.328;2022-09-17T08:57:59;29.80;28.80
70550;DHT22;58101;48.658;2.328;2022-09-17T09:00:12;29.20;29.50
70550;DHT22;58101;48.658;2.328;2022-09-17T09:05:27;28.90;29.40
70550;DHT22;58101;48.658;2.328;2022-09-17T09:08:05;29.20;29.90
70550;DHT22;58101;48.658;2.328;2022-09-17T09:10:54;30.10;28.60
70550;DHT22;58101;48.658;2.328;2022-09-17T09:13:22;30.60;26.70
70550;DHT22;58101;48.658;2.328;2022-09-17T09:16:01;31.30;26.80
70550;DHT22;58101;48.658;2.328;2022-09-17T09:18:32;31.50;25.10
70550;DHT22;58101;48.658;2.328;2022-09-17T09:23:58;31.60;25.90
70550;DHT22;58101;48.658;2.328;2022-09-17T09:32:12;32.40;24.60
70550;DHT22;58101;48.658;2.328;2022-09-17T09:34:41;32.80;24.30
70550;DHT22;58101;48.658;2.328;2022-09-17T09:39:39;33.10;23.20
70550;DHT22;58101;48.658;2.328;2022-09-17T09:42:33;33.40;23.20
70550;DHT22;58101;48.658;2.328;2022-09-17T09:45:12;33.60;23.40
70550;DHT22;58101;48.658;2.328;2022-09-17T09:47:57;33.90;23.10
70550;DHT22;58101;48.658;2.328;2022-09-17T09:59:13;35.00;22.60
70550;DHT22;58101;48.658;2.328;2022-09-17T10:01:42;33.90;22.60
70550;DHT22;58101;48.658;2.328;2022-09-17T10:04:22;31.90;23.50
70550;DHT22;58101;48.658;2.328;2022-09-17T10:06:51;30.60;25.80
70550;DHT22;58101;48.658;2.328;2022-09-17T10:09:20;30.50;26.00
70550;DHT22;58101;48.658;2.328;2022-09-17T10:14:30;29.10;27.10
70550;DHT22;58101;48.658;2.328;2022-09-17T10:17:15;29.30;27.10
70550;DHT22;58101;48.658;2.328;2022-09-17T10:19:43;30.40;25.70
70550;DHT22;58101;48.658;2.328;2022-09-17T10:24:47;31.50;23.50
70550;DHT22;58101;48.658;2.328;2022-09-17T10:27:16;31.40;24.10
70550;DHT22;58101;48.658;2.328;2022-09-17T10:29:43;31.80;24.20
70550;DHT22;58101;48.658;2.328;2022-09-17T10:32:18;32.10;23.70
70550;DHT22;58101;48.658;2.328;2022-09-17T10:42:48;34.50;20.90
70550;DHT22;58101;48.658;2.328;2022-09-17T10:45:26;34.60;20.90
70550;DHT22;58101;48.658;2.328;2022-09-17T10:47:53;34.00;20.90
70550;DHT22;58101;48.658;2.328;2022-09-17T10:50:30;33.60;22.00
70550;DHT22;58101;48.658;2.328;2022-09-17T10:53:00;33.40;22.10
70550;DHT22;58101;48.658;2.328;2022-09-17T10:55:32;32.20;22.40
70550;DHT22;58101;48.658;2.328;2022-09-17T11:00:58;32.00;23.00
70550;DHT22;58101;48.658;2.328;2022-09-17T11:11:17;34.30;21.20
70550;DHT22;58101;48.658;2.328;2022-09-17T11:14:03;33.60;21.50
70550;DHT22;58101;48.658;2.328;2022-09-17T11:21:48;29.60;26.10
70550;DHT22;58101;48.658;2.328;2022-09-17T11:32:25;26.70;29.10
70550;DHT22;58101;48.658;2.328;2022-09-17T11:37:42;28.90;26.80
70550;DHT22;58101;48.658;2.328;2022-09-17T11:40:18;30.00;25.30
70550;DHT22;58101;48.658;2.328;2022-09-17T11:43:01;31.00;24.40
70550;DHT22;58101;48.658;2.328;2022-09-17T11:46:02;31.40;24.80
70550;DHT22;58101;48.658;2.328;2022-09-17T11:48:42;30.50;24.30
70550;DHT22;58101;48.658;2.328;2022-09-17T11:51:27;28.90;25.10
70550;DHT22;58101;48.658;2.328;2022-09-17T11:54:24;27.90;26.70
70550;DHT22;58101;48.658;2.328;2022-09-17T11:56:57;28.00;27.50
70550;DHT22;58101;48.658;2.328;2022-09-17T12:05:38;28.70;25.70
70550;DHT22;58101;48.658;2.328;2022-09-17T12:08:26;28.90;26.70
70550;DHT22;58101;48.658;2.328;2022-09-17T12:13:32;27.30;27.80
70550;DHT22;58101;48.658;2.328;2022-09-17T12:16:12;27.00;27.90
70550;DHT22;58101;48.658;2.328;2022-09-17T12:18:47;27.20;29.90
70550;DHT22;58101;48.658;2.328;2022-09-17T12:21:18;27.40;27.90
70550;DHT22;58101;48.658;2.328;2022-09-17T12:23:51;27.60;27.30
70550;DHT22;58101;48.658;2.328;2022-09-17T12:37:12;25.20;28.90
70550;DHT22;58101;48.658;2.328;2022-09-17T12:45:14;24.20;32.30
70550;DHT22;58101;48.658;2.328;2022-09-17T12:47:57;24.40;30.60
70550;DHT22;58101;48.658;2.328;2022-09-17T12:58:39;24.70;31.60
70550;DHT22;58101;48.658;2.328;2022-09-17T13:01:29;24.80;30.70
70550;DHT22;58101;48.658;2.328;2022-09-17T13:15:58;23.30;33.20
70550;DHT22;58101;48.658;2.328;2022-09-17T13:21:23;23.70;34.70
70550;DHT22;58101;48.658;2.328;2022-09-17T13:23:54;23.90;33.60
70550;DHT22;58101;48.658;2.328;2022-09-17T13:26:34;24.10;32.50
70550;DHT22;58101;48.658;2.328;2022-09-17T13:29:00;24.30;32.30
70550;DHT22;58101;48.658;2.328;2022-09-17T13:34:30;24.40;31.30
70550;DHT22;58101;48.658;2.328;2022-09-17T13:36:57;24.10;31.10
70550;DHT22;58101;48.658;2.328;2022-09-17T13:39:39;24.00;31.30
70550;DHT22;58101;48.658;2.328;2022-09-17T13:44:42;23.90;32.20
70550;DHT22;58101;48.658;2.328;2022-09-17T13:47:30;23.90;31.60
70550;DHT22;58101;48.658;2.328;2022-09-17T13:52:44;24.00;30.20
70550;DHT22;58101;48.658;2.328;2022-09-17T13:55:36;24.00;30.00
70550;DHT22;58101;48.658;2.328;2022-09-17T13:58:09;24.00;30.00
70550;DHT22;58101;48.658;2.328;2022-09-17T14:00:56;24.00;30.60
70550;DHT22;58101;48.658;2.328;2022-09-17T14:08:45;23.90;30.60
70550;DHT22;58101;48.658;2.328;2022-09-17T14:19:39;23.50;32.20
70550;DHT22;58101;48.658;2.328;2022-09-17T14:22:17;23.40;31.90
70550;DHT22;58101;48.658;2.328;2022-09-17T14:24:50;23.30;31.40
70550;DHT22;58101;48.658;2.328;2022-09-17T14:30:19;22.70;31.80
70550;DHT22;58101;48.658;2.328;2022-09-17T14:32:53;22.30;32.60
70550;DHT22;58101;48.658;2.328;2022-09-17T14:38:19;21.60;33.60
70550;DHT22;58101;48.658;2.328;2022-09-17T14:43:26;21.60;33.80
70550;DHT22;58101;48.658;2.328;2022-09-17T14:45:56;21.60;34.10
70550;DHT22;58101;48.658;2.328;2022-09-17T14:48:30;21.80;34.60
70550;DHT22;58101;48.658;2.328;2022-09-17T14:53:49;21.90;32.90
70550;DHT22;58101;48.658;2.328;2022-09-17T14:56:35;21.90;33.40
70550;DHT22;58101;48.658;2.328;2022-09-17T14:59:03;21.70;32.70
70550;DHT22;58101;48.658;2.328;2022-09-17T15:01:30;21.50;32.80
70550;DHT22;58101;48.658;2.328;2022-09-17T15:06:37;21.20;32.10
70550;DHT22;58101;48.658;2.328;2022-09-17T15:09:03;21.20;32.20
70550;DHT22;58101;48.658;2.328;2022-09-17T15:11:33;21.10;31.90
70550;DHT22;58101;48.658;2.328;2022-09-17T15:14:04;21.10;32.50
70550;DHT22;58101;48.658;2.328;2022-09-17T15:16:31;21.00;31.50
70550;DHT22;58101;48.658;2.328;2022-09-17T15:19:01;21.00;32.80
70550;DHT22;58101;48.658;2.328;2022-09-17T15:21:38;20.90;33.10
70550;DHT22;58101;48.658;2.328;2022-09-17T15:27:30;20.80;33.90
70550;DHT22;58101;48.658;2.328;2022-09-17T15:30:03;20.70;32.90
70550;DHT22;58101;48.658;2.328;2022-09-17T15:32:31;20.70;33.50
70550;DHT22;58101;48.658;2.328;2022-09-17T15:37:46;20.40;34.00
70550;DHT22;58101;48.658;2.328;2022-09-17T15:40:22;20.30;34.30
70550;DHT22;58101;48.658;2.328;2022-09-17T15:42:51;20.30;34.60
70550;DHT22;58101;48.658;2.328;2022-09-17T15:45:21;20.20;35.30
70550;DHT22;58101;48.658;2.328;2022-09-17T15:47:53;20.10;34.50
70550;DHT22;58101;48.658;2.328;2022-09-17T15:50:31;20.10;34.80
70550;DHT22;58101;48.658;2.328;2022-09-17T15:55:34;19.90;35.50
70550;DHT22;58101;48.658;2.328;2022-09-17T16:08:56;19.50;37.40
70550;DHT22;58101;48.658;2.328;2022-09-17T16:11:28;19.40;36.20
70550;DHT22;58101;48.658;2.328;2022-09-17T16:13:56;19.30;36.20
70550;DHT22;58101;48.658;2.328;2022-09-17T16:16:31;19.20;36.30
70550;DHT22;58101;48.658;2.328;2022-09-17T16:18:57;19.20;36.10
70550;DHT22;58101;48.658;2.328;2022-09-17T16:21:23;19.00;36.90
70550;DHT22;58101;48.658;2.328;2022-09-17T16:23:49;18.90;37.30
70550;DHT22;58101;48.658;2.328;2022-09-17T16:26:20;18.80;38.00
70550;DHT22;58101;48.658;2.328;2022-09-17T16:28:50;18.70;38.40
70550;DHT22;58101;48.658;2.328;2022-09-17T16:31:18;18.70;38.20
70550;DHT22;58101;48.658;2.328;2022-09-17T16:33:44;18.60;38.30
70550;DHT22;58101;48.658;2.328;2022-09-17T16:36:10;18.60;38.20
70550;DHT22;58101;48.658;2.328;2022-09-17T16:38:36;18.50;38.30
70550;DHT22;58101;48.658;2.328;2022-09-17T16:41:05;18.50;39.00
70550;DHT22;58101;48.658;2.328;2022-09-17T16:43:31;18.50;39.10
70550;DHT22;58101;48.658;2.328;2022-09-17T16:48:27;18.40;39.50
70550;DHT22;58101;48.658;2.328;2022-09-17T16:50:53;18.30;39.40
70550;DHT22;58101;48.658;2.328;2022-09-17T16:53:19;18.20;40.00
70550;DHT22;58101;48.658;2.328;2022-09-17T16:55:45;18.20;40.40
70550;DHT22;58101;48.658;2.328;2022-09-17T16:58:11;18.10;40.70
70550;DHT22;58101;48.658;2.328;2022-09-17T17:00:41;18.10;40.60
70550;DHT22;58101;48.658;2.328;2022-09-17T17:03:08;18.00;40.40
70550;DHT22;58101;48.658;2.328;2022-09-17T17:05:36;18.00;40.60
70550;DHT22;58101;48.658;2.328;2022-09-17T17:08:02;17.90;40.50
70550;DHT22;58101;48.658;2.328;2022-09-17T17:10:28;17.90;41.00
70550;DHT22;58101;48.658;2.328;2022-09-17T17:12:53;17.80;41.10
70550;DHT22;58101;48.658;2.328;2022-09-17T17:15:19;17.80;41.30
70550;DHT22;58101;48.658;2.328;2022-09-17T17:17:46;17.70;41.80
70550;DHT22;58101;48.658;2.328;2022-09-17T17:20:12;17.70;42.40
70550;DHT22;58101;48.658;2.328;2022-09-17T17:22:42;17.70;42.60
70550;DHT22;58101;48.658;2.328;2022-09-17T17:25:09;17.60;42.60
70550;DHT22;58101;48.658;2.328;2022-09-17T17:27:35;17.60;43.60
70550;DHT22;58101;48.658;2.328;2022-09-17T17:30:03;17.50;42.80
70550;DHT22;58101;48.658;2.328;2022-09-17T17:32:31;17.40;42.90
70550;DHT22;58101;48.658;2.328;2022-09-17T17:34:57;17.30;42.60
70550;DHT22;58101;48.658;2.328;2022-09-17T17:37:22;17.30;43.70
70550;DHT22;58101;48.658;2.328;2022-09-17T17:39:48;17.20;43.90
70550;DHT22;58101;48.658;2.328;2022-09-17T17:42:14;17.10;44.10
70550;DHT22;58101;48.658;2.328;2022-09-17T17:44:40;17.00;44.50
70550;DHT22;58101;48.658;2.328;2022-09-17T17:47:05;16.90;44.60
70550;DHT22;58101;48.658;2.328;2022-09-17T17:49:32;16.80;44.50
70550;DHT22;58101;48.658;2.328;2022-09-17T17:51:58;16.70;45.30
70550;DHT22;58101;48.658;2.328;2022-09-17T17:54:25;16.70;45.80
70550;DHT22;58101;48.658;2.328;2022-09-17T17:56:53;16.60;46.30
70550;DHT22;58101;48.658;2.328;2022-09-17T17:59:19;16.50;45.90
70550;DHT22;58101;48.658;2.328;2022-09-17T18:01:44;16.40;46.40
70550;DHT22;58101;48.658;2.328;2022-09-17T18:04:10;16.40;46.70
70550;DHT22;58101;48.658;2.328;2022-09-17T18:06:36;16.40;47.60
70550;DHT22;58101;48.658;2.328;2022-09-17T18:09:02;16.30;47.20
70550;DHT22;58101;48.658;2.328;2022-09-17T18:11:28;16.20;47.50
70550;DHT22;58101;48.658;2.328;2022-09-17T18:13:55;16.20;47.60
70550;DHT22;58101;48.658;2.328;2022-09-17T18:16:21;16.10;48.10
70550;DHT22;58101;48.658;2.328;2022-09-17T18:18:48;16.10;48.80
70550;DHT22;58101;48.658;2.328;2022-09-17T18:21:16;16.00;48.90
70550;DHT22;58101;48.658;2.328;2022-09-17T18:23:43;16.00;48.90
70550;DHT22;58101;48.658;2.328;2022-09-17T18:26:10;16.00;48.90
70550;DHT22;58101;48.658;2.328;2022-09-17T18:28:36;15.90;49.60
70550;DHT22;58101;48.658;2.328;2022-09-17T18:33:31;15.80;49.90
70550;DHT22;58101;48.658;2.328;2022-09-17T18:36:01;15.70;50.60
70550;DHT22;58101;48.658;2.328;2022-09-17T18:38:27;15.70;51.00
70550;DHT22;58101;48.658;2.328;2022-09-17T18:40:53;15.50;51.30
70550;DHT22;58101;48.658;2.328;2022-09-17T18:43:18;15.50;51.30
70550;DHT22;58101;48.658;2.328;2022-09-17T18:45:54;15.40;51.40
70550;DHT22;58101;48.658;2.328;2022-09-17T18:48:20;15.40;52.10
70550;DHT22;58101;48.658;2.328;2022-09-17T18:53:22;15.30;52.70
70550;DHT22;58101;48.658;2.328;2022-09-17T18:55:47;15.30;52.60
70550;DHT22;58101;48.658;2.328;2022-09-17T18:58:13;15.20;53.40
70550;DHT22;58101;48.658;2.328;2022-09-17T19:00:39;15.20;52.70
70550;DHT22;58101;48.658;2.328;2022-09-17T19:03:05;15.10;52.80
70550;DHT22;58101;48.658;2.328;2022-09-17T19:05:31;15.10;53.20
70550;DHT22;58101;48.658;2.328;2022-09-17T19:07:56;15.00;53.40
70550;DHT22;58101;48.658;2.328;2022-09-17T19:10:22;14.90;53.40
70550;DHT22;58101;48.658;2.328;2022-09-17T19:12:47;14.90;54.00
70550;DHT22;58101;48.658;2.328;2022-09-17T19:15:14;14.90;54.10
70550;DHT22;58101;48.658;2.328;2022-09-17T19:17:43;14.80;54.40
70550;DHT22;58101;48.658;2.328;2022-09-17T19:20:08;14.70;54.50
70550;DHT22;58101;48.658;2.328;2022-09-17T19:22:34;14.70;55.10
70550;DHT22;58101;48.658;2.328;2022-09-17T19:25:00;14.70;54.90
70550;DHT22;58101;48.658;2.328;2022-09-17T19:27:25;14.60;55.20
70550;DHT22;58101;48.658;2.328;2022-09-17T19:29:51;14.60;55.70